Time,TemperatureF,DewpointF,PressureIn,WindDirection,WindDirectionDegrees,WindSpeedMPH,WindSpeedGustMPH,Humidity,HourlyPrecipIn,Conditions,Clouds,dailyrainin,SolarRadiationWatts/m^2,SoftwareType,DateUTC
2013-10-12 00:12:00,46.0,29.0,-100.00,SSE,151,1.0,6.0,51,0.00,,,0.00,0.000000,,2013-10-12 07:12:00,
2013-10-12 00:21:00,46.0,29.0,-100.00,SSE,151,1.0,6.0,51,0.00,,,0.00,0.000000,,2013-10-12 07:21:00,
2013-10-12 00:32:00,46.0,29.0,-100.00,SSE,151,1.0,6.0,51,0.00,,,0.00,0.000000,,2013-10-12 07:32:00,
2013-10-12 01:12:00,46.0,29.0,-100.00,South,185,1.0,5.0,52,0.00,,,0.00,0.000000,,2013-10-12 08:12:00,
2013-10-12 01:22:00,46.0,29.0,-100.00,South,185,1.0,5.0,52,0.00,,,0.00,0.000000,,2013-10-12 08:22:00,
2013-10-12 01:32:00,46.0,29.0,-100.00,South,185,1.0,5.0,52,0.00,,,0.00,0.000000,,2013-10-12 08:32:00,
2013-10-12 02:11:00,45.0,29.0,-100.00,SW,217,2.0,4.0,54,0.00,,,0.00,0.000000,,2013-10-12 09:11:00,
2013-10-12 02:21:00,45.0,29.0,-100.00,SW,217,2.0,4.0,54,0.00,,,0.00,0.000000,,2013-10-12 09:21:00,
2013-10-12 02:33:00,45.0,29.0,-100.00,SW,217,2.0,4.0,54,0.00,,,0.00,0.000000,,2013-10-12 09:33:00,
2013-10-12 03:12:00,46.0,30.0,-100.00,SSE,165,1.0,5.0,53,0.00,,,0.00,0.000000,,2013-10-12 10:12:00,
2013-10-12 03:23:00,46.0,30.0,-100.00,SSE,165,1.0,5.0,53,0.00,,,0.00,0.000000,,2013-10-12 10:23:00,
2013-10-12 03:32:00,46.0,30.0,-100.00,SSE,165,1.0,5.0,53,0.00,,,0.00,0.000000,,2013-10-12 10:32:00,
2013-10-12 04:12:00,45.0,28.0,-100.00,SE,127,4.0,8.0,52,0.00,,,0.00,0.000000,,2013-10-12 11:12:00,
2013-10-12 04:22:00,45.0,28.0,-100.00,SE,127,4.0,8.0,52,0.00,,,0.00,0.000000,,2013-10-12 11:22:00,
2013-10-12 04:33:00,45.0,28.0,-100.00,SE,127,4.0,8.0,52,0.00,,,0.00,0.000000,,2013-10-12 11:33:00,
2013-10-12 05:11:00,45.0,26.0,-100.00,South,182,3.0,9.0,47,0.00,,,0.00,0.000000,,2013-10-12 12:11:00,
2013-10-12 05:22:00,45.0,26.0,-100.00,South,182,3.0,9.0,47,0.00,,,0.00,0.000000,,2013-10-12 12:22:00,
2013-10-12 05:32:00,45.0,26.0,-100.00,South,182,3.0,9.0,47,0.00,,,0.00,0.000000,,2013-10-12 12:32:00,
2013-10-12 06:11:00,45.0,25.0,-100.00,South,190,2.0,7.0,45,0.00,,,0.00,0.000000,,2013-10-12 13:11:00,
2013-10-12 06:21:00,45.0,25.0,-100.00,South,190,2.0,7.0,45,0.00,,,0.00,0.000000,,2013-10-12 13:21:00,
2013-10-12 06:31:00,45.0,25.0,-100.00,South,190,2.0,7.0,45,0.00,,,0.00,0.000000,,2013-10-12 13:31:00,
2013-10-12 07:12:00,44.0,26.0,-100.00,SE,143,3.0,7.0,49,0.00,,,0.00,3.000000,,2013-10-12 14:12:00,
2013-10-12 07:21:00,44.0,26.0,-100.00,SE,143,3.0,7.0,49,0.00,,,0.00,3.000000,,2013-10-12 14:21:00,
2013-10-12 07:32:00,44.0,26.0,-100.00,SE,143,3.0,7.0,49,0.00,,,0.00,3.000000,,2013-10-12 14:32:00,
2013-10-12 08:11:00,52.0,32.0,-100.00,SSE,151,5.0,9.0,46,0.00,,,0.00,149.000000,,2013-10-12 15:11:00,
2013-10-12 08:22:00,52.0,32.0,-100.00,SSE,151,5.0,9.0,46,0.00,,,0.00,149.000000,,2013-10-12 15:22:00,
2013-10-12 08:33:00,52.0,32.0,-100.00,SSE,151,5.0,9.0,46,0.00,,,0.00,149.000000,,2013-10-12 15:33:00,
2013-10-12 09:13:00,55.0,32.0,-100.00,SSE,149,8.0,14.0,41,0.00,,,0.00,418.000000,,2013-10-12 16:13:00,
2013-10-12 09:23:00,55.0,32.0,-100.00,SSE,149,8.0,14.0,41,0.00,,,0.00,418.000000,,2013-10-12 16:23:00,
2013-10-12 09:33:00,55.0,32.0,-100.00,SSE,149,8.0,14.0,41,0.00,,,0.00,418.000000,,2013-10-12 16:33:00,
2013-10-12 10:13:00,59.0,31.0,-100.00,South,178,6.0,14.0,35,0.00,,,-99.99,666.000000,,2013-10-12 17:13:00,
2013-10-12 10:23:00,59.0,31.0,-100.00,South,178,6.0,14.0,35,0.00,,,-99.99,666.000000,,2013-10-12 17:23:00,
2013-10-12 10:34:00,59.0,31.0,-100.00,South,178,6.0,14.0,35,0.00,,,-99.99,666.000000,,2013-10-12 17:34:00,
2013-10-12 11:12:00,61.0,29.0,-100.00,South,174,6.0,13.0,30,0.00,,,0.00,863.000000,,2013-10-12 18:12:00,
2013-10-12 11:22:00,61.0,29.0,-100.00,South,174,6.0,13.0,30,0.00,,,0.00,863.000000,,2013-10-12 18:22:00,
2013-10-12 11:32:00,61.0,29.0,-100.00,South,174,6.0,13.0,30,0.00,,,0.00,863.000000,,2013-10-12 18:32:00,
2013-10-12 12:11:00,62.0,31.0,-100.00,South,186,5.0,15.0,31,0.00,,,0.00,988.000000,,2013-10-12 19:11:00,
2013-10-12 12:22:00,62.0,31.0,-100.00,South,186,5.0,15.0,31,0.00,,,0.00,988.000000,,2013-10-12 19:22:00,
2013-10-12 12:32:00,62.0,31.0,-100.00,South,186,5.0,15.0,31,0.00,,,0.00,988.000000,,2013-10-12 19:32:00,
2013-10-12 13:12:00,62.0,33.0,-100.00,South,181,6.0,15.0,33,0.00,,,0.00,1033.000000,,2013-10-12 20:12:00,
2013-10-12 13:22:00,62.0,33.0,-100.00,South,181,6.0,15.0,33,0.00,,,0.00,1033.000000,,2013-10-12 20:22:00,
2013-10-12 13:31:00,62.0,33.0,-100.00,South,181,6.0,15.0,33,0.00,,,0.00,1033.000000,,2013-10-12 20:31:00,
2013-10-12 14:11:00,65.0,30.0,-100.00,SSE,164,5.0,12.0,27,0.00,,,0.00,999.000000,,2013-10-12 21:11:00,
2013-10-12 14:22:00,65.0,30.0,-100.00,SSE,164,5.0,12.0,27,0.00,,,0.00,999.000000,,2013-10-12 21:22:00,
2013-10-12 14:34:00,65.0,30.0,-100.00,SSE,164,5.0,12.0,27,0.00,,,0.00,999.000000,,2013-10-12 21:34:00,
2013-10-12 15:13:00,68.0,33.0,-100.00,SSW,206,3.0,14.0,27,0.00,,,0.00,887.000000,,2013-10-12 22:13:00,
2013-10-12 15:24:00,68.0,33.0,-100.00,SSW,206,3.0,14.0,27,0.00,,,0.00,887.000000,,2013-10-12 22:24:00,
2013-10-12 15:33:00,68.0,33.0,-100.00,SSW,206,3.0,14.0,27,0.00,,,0.00,887.000000,,2013-10-12 22:33:00,
2013-10-12 16:12:00,65.0,30.0,-100.00,SSE,153,3.0,11.0,27,0.00,,,0.00,697.000000,,2013-10-12 23:12:00,
2013-10-12 16:22:00,65.0,30.0,-100.00,SSE,153,3.0,11.0,27,0.00,,,0.00,697.000000,,2013-10-12 23:22:00,
2013-10-12 16:33:00,65.0,30.0,-100.00,SSE,153,3.0,11.0,27,0.00,,,0.00,697.000000,,2013-10-12 23:33:00,
2013-10-12 17:12:00,65.0,32.0,-100.00,SW,223,4.0,10.0,29,0.00,,,0.00,455.000000,,2013-10-13 00:12:00,
2013-10-12 17:21:00,65.0,32.0,-100.00,SW,223,4.0,10.0,29,0.00,,,0.00,455.000000,,2013-10-13 00:21:00,
2013-10-12 17:32:00,65.0,32.0,-100.00,SW,223,4.0,10.0,29,0.00,,,0.00,455.000000,,2013-10-13 00:32:00,
2013-10-12 18:12:00,59.0,31.0,-100.00,WSW,238,3.0,9.0,35,0.00,,,0.00,188.000000,,2013-10-13 01:12:00,
2013-10-12 18:21:00,59.0,31.0,-100.00,WSW,238,3.0,9.0,35,0.00,,,0.00,188.000000,,2013-10-13 01:21:00,
2013-10-12 18:32:00,59.0,31.0,-100.00,WSW,238,3.0,9.0,35,0.00,,,0.00,188.000000,,2013-10-13 01:32:00,
2013-10-12 19:11:00,51.0,28.0,-100.00,SW,221,3.0,5.0,40,0.00,,,0.00,8.000000,,2013-10-13 02:11:00,
2013-10-12 19:22:00,51.0,28.0,-100.00,SW,221,3.0,5.0,40,0.00,,,0.00,8.000000,,2013-10-13 02:22:00,
2013-10-12 19:32:00,51.0,28.0,-100.00,SW,221,3.0,5.0,40,0.00,,,0.00,8.000000,,2013-10-13 02:32:00,
2013-10-12 20:11:00,50.0,28.0,-100.00,SW,223,5.0,9.0,43,0.00,,,0.00,0.000000,,2013-10-13 03:11:00,
2013-10-12 20:22:00,50.0,28.0,-100.00,SW,223,5.0,9.0,43,0.00,,,0.00,0.000000,,2013-10-13 03:22:00,
2013-10-12 20:34:00,50.0,28.0,-100.00,SW,223,5.0,9.0,43,0.00,,,0.00,0.000000,,2013-10-13 03:34:00,
2013-10-12 21:02:00,-999.0,-99.9,-100.00,SW,228,5.0,10.0,-999,-99.99,,,-99.99,0.000000,,2013-10-13 04:02:00,
2013-10-12 21:13:00,49.0,27.0,-100.00,SW,228,5.0,10.0,43,0.00,,,0.00,0.000000,,2013-10-13 04:13:00,
2013-10-12 21:23:00,49.0,27.0,-100.00,SW,228,5.0,10.0,43,0.00,,,0.00,0.000000,,2013-10-13 04:23:00,
2013-10-12 21:33:00,49.0,27.0,-100.00,SW,228,5.0,10.0,43,0.00,,,0.00,0.000000,,2013-10-13 04:33:00,
2013-10-12 22:12:00,48.0,28.0,-100.00,SW,233,5.0,7.0,46,0.00,,,0.00,0.000000,,2013-10-13 05:12:00,
2013-10-12 22:23:00,48.0,28.0,-100.00,SW,233,5.0,7.0,46,0.00,,,0.00,0.000000,,2013-10-13 05:23:00,
2013-10-12 22:34:00,48.0,28.0,-100.00,SW,233,5.0,7.0,46,0.00,,,0.00,0.000000,,2013-10-13 05:34:00,
2013-10-12 23:12:00,50.0,28.0,-100.00,SSW,213,6.0,12.0,43,0.00,,,0.00,0.000000,,2013-10-13 06:12:00,
2013-10-12 23:21:00,50.0,28.0,-100.00,SSW,213,6.0,12.0,43,0.00,,,0.00,0.000000,,2013-10-13 06:21:00,
2013-10-12 23:32:00,50.0,28.0,-100.00,SSW,213,6.0,12.0,43,0.00,,,0.00,0.000000,,2013-10-13 06:32:00,